sensor_id;sensor_type;location;lat;lon;timestamp;pressure;altitude;pressure_sealevel;temperature;humidity
47983;BME280;33751;50.816;-1.214;2023-11-21T00:00:32;101430.23;;;28.52;100.00
47983;BME280;33751;50.816;-1.214;2023-11-21T00:02:58;101434.35;;;28.62;100.00
47983;BME280;33751;50.816;-1.214;2023-11-21T00:05:25;101436.48;;;28.65;100.00
47983;BME280;33751;50.816;-1.214;2023-11-21T00:07:51;101440.45;;;28.40;100.00
47983;BME280;33751;50.816;-1.214;2023-11-21T00:10:18;101446.43;;;28.30;100.00
47983;BME280;33751;50.816;-1.214;2023-11-21T00:12:44;101447.07;;;28.52;100.00
47983;BME280;33751;50.816;-1.214;2023-11-21T00:15:11;101445.42;;;28.47;100.00
47983;BME280;33751;50.816;-1.214;2023-11-21T00:17:37;101450.52;;;28.56;100.00
47983;BME280;33751;50.816;-1.214;2023-11-21T00:20:04;101454.91;;;28.24;100.00
47983;BME280;33751;50.816;-1.214;2023-11-21T00:22:31;101459.30;;;28.53;100.00
47983;BME280;33751;50.816;-1.214;2023-11-21T00:24:57;101460.58;;;28.52;100.00
47983;BME280;33751;50.816;-1.214;2023-11-21T00:27:24;101462.13;;;28.47;100.00
47983;BME280;33751;50.816;-1.214;2023-11-21T00:29:51;101464.72;;;28.47;100.00
47983;BME280;33751;50.816;-1.214;2023-11-21T00:32:17;101469.79;;;28.44;100.00
47983;BME280;33751;50.816;-1.214;2023-11-21T00:34:44;101475.61;;;28.35;100.00
47983;BME280;33751;50.816;-1.214;2023-11-21T00:37:10;101478.79;;;28.48;100.00
47983;BME280;33751;50.816;-1.214;2023-11-21T00:39:37;101478.50;;;28.45;100.00
47983;BME280;33751;50.816;-1.214;2023-11-21T00:42:03;101480.19;;;28.48;100.00
47983;BME280;33751;50.816;-1.214;2023-11-21T00:44:30;101480.62;;;28.41;100.00
47983;BME280;33751;50.816;-1.214;2023-11-21T00:46:57;101476.67;;;28.48;100.00
47983;BME280;33751;50.816;-1.214;2023-11-21T00:49:23;101474.72;;;28.18;100.00
47983;BME280;33751;50.816;-1.214;2023-11-21T00:51:50;101473.50;;;28.40;100.00
47983;BME280;33751;50.816;-1.214;2023-11-21T00:54:16;101475.44;;;27.96;100.00
47983;BME280;33751;50.816;-1.214;2023-11-21T00:56:43;101474.75;;;28.17;100.00
47983;BME280;33751;50.816;-1.214;2023-11-21T00:59:09;101471.67;;;28.18;100.00
47983;BME280;33751;50.816;-1.214;2023-11-21T01:01:36;101469.99;;;28.41;100.00
47983;BME280;33751;50.816;-1.214;2023-11-21T01:04:02;101472.66;;;28.37;100.00
47983;BME280;33751;50.816;-1.214;2023-11-21T01:06:29;101476.63;;;28.15;100.00
47983;BME280;33751;50.816;-1.214;2023-11-21T01:08:56;101478.24;;;28.48;100.00
47983;BME280;33751;50.816;-1.214;2023-11-21T01:11:22;101477.03;;;28.24;100.00
47983;BME280;33751;50.816;-1.214;2023-11-21T01:13:49;101477.33;;;28.37;100.00
47983;BME280;33751;50.816;-1.214;2023-11-21T01:16:16;101483.45;;;28.37;100.00
47983;BME280;33751;50.816;-1.214;2023-11-21T01:18:43;101487.04;;;28.48;100.00
47983;BME280;33751;50.816;-1.214;2023-11-21T01:21:10;101491.33;;;28.62;100.00
47983;BME280;33751;50.816;-1.214;2023-11-21T01:23:36;101491.81;;;28.40;100.00
47983;BME280;33751;50.816;-1.214;2023-11-21T01:26:03;101495.92;;;28.10;100.00
47983;BME280;33751;50.816;-1.214;2023-11-21T01:28:30;101500.08;;;28.40;100.00
47983;BME280;33751;50.816;-1.214;2023-11-21T01:30:56;101497.79;;;28.34;100.00
47983;BME280;33751;50.816;-1.214;2023-11-21T01:33:23;101503.00;;;28.38;100.00
47983;BME280;33751;50.816;-1.214;2023-11-21T01:35:50;101503.06;;;28.56;100.00
47983;BME280;33751;50.816;-1.214;2023-11-21T01:38:17;101510.50;;;28.35;100.00
47983;BME280;33751;50.816;-1.214;2023-11-21T01:40:43;101510.25;;;28.12;100.00
47983;BME280;33751;50.816;-1.214;2023-11-21T01:43:09;101517.49;;;28.33;100.00
47983;BME280;33751;50.816;-1.214;2023-11-21T01:45:36;101519.81;;;28.56;100.00
47983;BME280;33751;50.816;-1.214;2023-11-21T01:48:03;101530.23;;;28.31;100.00
47983;BME280;33751;50.816;-1.214;2023-11-21T01:50:30;101531.38;;;28.03;100.00
47983;BME280;33751;50.816;-1.214;2023-11-21T01:52:57;101535.57;;;28.72;100.00
47983;BME280;33751;50.816;-1.214;2023-11-21T01:55:24;101533.63;;;28.34;100.00
47983;BME280;33751;50.816;-1.214;2023-11-21T01:59:34;101533.78;;;28.49;100.00
47983;BME280;33751;50.816;-1.214;2023-11-21T02:02:02;101541.46;;;27.74;100.00
47983;BME280;33751;50.816;-1.214;2023-11-21T02:04:29;101547.42;;;27.84;100.00
47983;BME280;33751;50.816;-1.214;2023-11-21T02:06:56;101554.40;;;27.43;100.00
47983;BME280;33751;50.816;-1.214;2023-11-21T02:09:25;101555.74;;;27.67;100.00
47983;BME280;33751;50.816;-1.214;2023-11-21T02:11:52;101559.90;;;27.33;100.00
47983;BME280;33751;50.816;-1.214;2023-11-21T02:14:18;101564.35;;;27.52;100.00
47983;BME280;33751;50.816;-1.214;2023-11-21T02:16:45;101569.01;;;27.49;100.00
47983;BME280;33751;50.816;-1.214;2023-11-21T02:19:14;101567.99;;;27.51;100.00
47983;BME280;33751;50.816;-1.214;2023-11-21T02:21:44;101569.31;;;27.80;100.00
47983;BME280;33751;50.816;-1.214;2023-11-21T02:24:12;101574.89;;;27.50;100.00
47983;BME280;33751;50.816;-1.214;2023-11-21T02:26:39;101580.04;;;27.44;100.00
47983;BME280;33751;50.816;-1.214;2023-11-21T02:29:05;101584.71;;;27.41;100.00
47983;BME280;33751;50.816;-1.214;2023-11-21T02:31:32;101586.34;;;27.45;100.00
47983;BME280;33751;50.816;-1.214;2023-11-21T02:33:59;101587.40;;;27.42;100.00
47983;BME280;33751;50.816;-1.214;2023-11-21T02:36:26;101594.21;;;27.39;100.00
47983;BME280;33751;50.816;-1.214;2023-11-21T02:38:53;101592.26;;;27.36;100.00
47983;BME280;33751;50.816;-1.214;2023-11-21T02:41:19;101589.72;;;27.62;100.00
47983;BME280;33751;50.816;-1.214;2023-11-21T02:43:46;101595.26;;;27.61;100.00
47983;BME280;33751;50.816;-1.214;2023-11-21T02:46:13;101596.58;;;27.33;100.00
47983;BME280;33751;50.816;-1.214;2023-11-21T02:48:40;101604.27;;;27.31;100.00
47983;BME280;33751;50.816;-1.214;2023-11-21T02:51:06;101607.37;;;27.30;100.00
47983;BME280;33751;50.816;-1.214;2023-11-21T02:53:33;101607.35;;;27.29;100.00
47983;BME280;33751;50.816;-1.214;2023-11-21T02:55:59;101612.77;;;27.27;100.00
47983;BME280;33751;50.816;-1.214;2023-11-21T02:58:25;101618.29;;;27.32;100.00
47983;BME280;33751;50.816;-1.214;2023-11-21T03:00:52;101625.15;;;27.30;100.00
47983;BME280;33751;50.816;-1.214;2023-11-21T03:03:18;101628.43;;;27.30;100.00
47983;BME280;33751;50.816;-1.214;2023-11-21T03:05:45;101631.02;;;27.31;100.00
47983;BME280;33751;50.816;-1.214;2023-11-21T03:08:11;101632.60;;;27.38;100.00
47983;BME280;33751;50.816;-1.214;2023-11-21T03:10:38;101636.61;;;27.35;100.00
47983;BME280;33751;50.816;-1.214;2023-11-21T03:13:05;101642.91;;;27.33;100.00
47983;BME280;33751;50.816;-1.214;2023-11-21T03:15:32;101647.74;;;27.26;100.00
47983;BME280;33751;50.816;-1.214;2023-11-21T03:17:59;101648.64;;;27.28;100.00
47983;BME280;33751;50.816;-1.214;2023-11-21T03:20:25;101653.82;;;27.51;100.00
47983;BME280;33751;50.816;-1.214;2023-11-21T03:22:52;101652.51;;;27.28;100.00
47983;BME280;33751;50.816;-1.214;2023-11-21T03:25:18;101651.58;;;27.29;100.00
47983;BME280;33751;50.816;-1.214;2023-11-21T03:27:45;101652.83;;;27.73;100.00
47983;BME280;33751;50.816;-1.214;2023-11-21T03:30:11;101649.17;;;27.22;100.00
47983;BME280;33751;50.816;-1.214;2023-11-21T03:32:39;101651.03;;;27.71;100.00
47983;BME280;33751;50.816;-1.214;2023-11-21T03:35:05;101648.64;;;27.47;100.00
47983;BME280;33751;50.816;-1.214;2023-11-21T03:37:32;101647.94;;;27.13;100.00
47983;BME280;33751;50.816;-1.214;2023-11-21T03:39:59;101649.19;;;27.16;100.00
47983;BME280;33751;50.816;-1.214;2023-11-21T03:42:25;101655.32;;;27.16;100.00
47983;BME280;33751;50.816;-1.214;2023-11-21T03:44:52;101659.36;;;27.23;100.00
47983;BME280;33751;50.816;-1.214;2023-11-21T03:47:19;101660.23;;;27.21;100.00
47983;BME280;33751;50.816;-1.214;2023-11-21T03:49:45;101662.81;;;27.14;100.00
47983;BME280;33751;50.816;-1.214;2023-11-21T03:52:12;101665.00;;;27.19;100.00
47983;BME280;33751;50.816;-1.214;2023-11-21T03:54:38;101666.69;;;27.12;100.00
47983;BME280;33751;50.816;-1.214;2023-11-21T03:57:05;101668.49;;;27.14;100.00
47983;BME280;33751;50.816;-1.214;2023-11-21T03:59:31;101666.38;;;27.67;100.00
47983;BME280;33751;50.816;-1.214;2023-11-21T04:01:58;101672.74;;;27.35;100.00
47983;BME280;33751;50.816;-1.214;2023-11-21T04:04:24;101685.90;;;27.07;100.00
47983;BME280;33751;50.816;-1.214;2023-11-21T04:06:51;101694.00;;;27.18;100.00
47983;BME280;33751;50.816;-1.214;2023-11-21T04:09:17;101699.58;;;27.43;100.00
47983;BME280;33751;50.816;-1.214;2023-11-21T04:11:44;101704.07;;;27.22;100.00
47983;BME280;33751;50.816;-1.214;2023-11-21T04:14:10;101706.68;;;27.20;100.00
47983;BME280;33751;50.816;-1.214;2023-11-21T04:16:36;101710.21;;;27.42;100.00
47983;BME280;33751;50.816;-1.214;2023-11-21T04:19:03;101715.68;;;27.07;100.00
47983;BME280;33751;50.816;-1.214;2023-11-21T04:21:29;101720.07;;;27.35;100.00
47983;BME280;33751;50.816;-1.214;2023-11-21T04:23:56;101718.50;;;27.60;100.00
47983;BME280;33751;50.816;-1.214;2023-11-21T04:26:22;101722.16;;;27.11;100.00
47983;BME280;33751;50.816;-1.214;2023-11-21T04:28:49;101729.44;;;27.17;100.00
47983;BME280;33751;50.816;-1.214;2023-11-21T04:31:16;101729.15;;;27.44;100.00
47983;BME280;33751;50.816;-1.214;2023-11-21T04:33:42;101732.31;;;27.40;100.00
47983;BME280;33751;50.816;-1.214;2023-11-21T04:36:09;101736.59;;;27.46;100.00
47983;BME280;33751;50.816;-1.214;2023-11-21T04:38:36;101739.38;;;27.67;100.00
47983;BME280;33751;50.816;-1.214;2023-11-21T04:41:03;101741.21;;;27.18;100.00
47983;BME280;33751;50.816;-1.214;2023-11-21T04:43:29;101740.62;;;27.17;100.00
47983;BME280;33751;50.816;-1.214;2023-11-21T04:45:56;101741.92;;;27.15;100.00
47983;BME280;33751;50.816;-1.214;2023-11-21T04:48:22;101741.84;;;27.12;100.00
47983;BME280;33751;50.816;-1.214;2023-11-21T04:50:49;101742.83;;;27.43;100.00
47983;BME280;33751;50.816;-1.214;2023-11-21T04:53:15;101743.54;;;27.40;100.00
47983;BME280;33751;50.816;-1.214;2023-11-21T04:55:43;101745.22;;;27.13;100.00
47983;BME280;33751;50.816;-1.214;2023-11-21T04:58:10;101746.95;;;27.33;100.00
47983;BME280;33751;50.816;-1.214;2023-11-21T05:00:37;101747.99;;;26.99;100.00
47983;BME280;33751;50.816;-1.214;2023-11-21T05:03:06;101747.62;;;27.27;100.00
47983;BME280;33751;50.816;-1.214;2023-11-21T05:05:33;101741.31;;;27.30;100.00
47983;BME280;33751;50.816;-1.214;2023-11-21T05:07:59;101744.49;;;27.05;100.00
47983;BME280;33751;50.816;-1.214;2023-11-21T05:10:25;101748.61;;;27.02;100.00
47983;BME280;33751;50.816;-1.214;2023-11-21T05:12:52;101746.22;;;27.22;100.00
47983;BME280;33751;50.816;-1.214;2023-11-21T05:15:18;101750.94;;;27.31;100.00
47983;BME280;33751;50.816;-1.214;2023-11-21T05:17:45;101752.72;;;26.99;100.00
47983;BME280;33751;50.816;-1.214;2023-11-21T05:20:13;101758.90;;;27.52;100.00
47983;BME280;33751;50.816;-1.214;2023-11-21T05:22:40;101769.80;;;27.54;100.00
47983;BME280;33751;50.816;-1.214;2023-11-21T05:25:08;101774.48;;;27.01;100.00
47983;BME280;33751;50.816;-1.214;2023-11-21T05:27:35;101781.14;;;27.25;100.00
47983;BME280;33751;50.816;-1.214;2023-11-21T05:30:04;101788.97;;;27.00;100.00
47983;BME280;33751;50.816;-1.214;2023-11-21T05:32:30;101790.34;;;27.32;100.00
47983;BME280;33751;50.816;-1.214;2023-11-21T05:34:57;101795.55;;;27.31;100.00
47983;BME280;33751;50.816;-1.214;2023-11-21T05:37:23;101796.48;;;27.02;100.00
47983;BME280;33751;50.816;-1.214;2023-11-21T05:39:50;101801.20;;;27.46;100.00
47983;BME280;33751;50.816;-1.214;2023-11-21T05:42:16;101810.73;;;27.46;100.00
47983;BME280;33751;50.816;-1.214;2023-11-21T05:44:43;101816.41;;;27.29;100.00
47983;BME280;33751;50.816;-1.214;2023-11-21T05:47:10;101813.93;;;27.00;100.00
47983;BME280;33751;50.816;-1.214;2023-11-21T05:49:37;101821.80;;;27.53;100.00
47983;BME280;33751;50.816;-1.214;2023-11-21T05:52:04;101827.42;;;26.98;100.00
47983;BME280;33751;50.816;-1.214;2023-11-21T05:54:30;101829.62;;;27.28;100.00
47983;BME280;33751;50.816;-1.214;2023-11-21T05:56:57;101831.62;;;27.00;100.00
47983;BME280;33751;50.816;-1.214;2023-11-21T05:59:24;101835.67;;;26.99;100.00
47983;BME280;33751;50.816;-1.214;2023-11-21T06:01:51;101842.01;;;27.44;100.00
47983;BME280;33751;50.816;-1.214;2023-11-21T06:04:17;101847.36;;;27.15;100.00
47983;BME280;33751;50.816;-1.214;2023-11-21T06:06:44;101851.70;;;27.13;100.00
47983;BME280;33751;50.816;-1.214;2023-11-21T06:09:10;101849.44;;;26.83;100.00
47983;BME280;33751;50.816;-1.214;2023-11-21T06:11:36;101861.52;;;26.90;100.00
47983;BME280;33751;50.816;-1.214;2023-11-21T06:14:03;101866.64;;;27.08;100.00
47983;BME280;33751;50.816;-1.214;2023-11-21T06:16:30;101868.82;;;27.33;100.00
47983;BME280;33751;50.816;-1.214;2023-11-21T06:18:57;101869.94;;;26.84;100.00
47983;BME280;33751;50.816;-1.214;2023-11-21T06:21:24;101872.25;;;27.31;100.00
47983;BME280;33751;50.816;-1.214;2023-11-21T06:23:50;101874.54;;;27.10;100.00
47983;BME280;33751;50.816;-1.214;2023-11-21T06:26:17;101876.13;;;26.82;100.00
47983;BME280;33751;50.816;-1.214;2023-11-21T06:28:43;101881.95;;;27.34;100.00
47983;BME280;33751;50.816;-1.214;2023-11-21T06:31:10;101882.54;;;27.11;100.00
47983;BME280;33751;50.816;-1.214;2023-11-21T06:33:36;101889.05;;;26.85;100.00
47983;BME280;33751;50.816;-1.214;2023-11-21T06:36:03;101889.17;;;27.31;100.00
47983;BME280;33751;50.816;-1.214;2023-11-21T06:38:30;101897.30;;;27.27;100.00
47983;BME280;33751;50.816;-1.214;2023-11-21T06:40:57;101895.94;;;26.79;100.00
47983;BME280;33751;50.816;-1.214;2023-11-21T06:43:24;101897.25;;;26.93;100.00
47983;BME280;33751;50.816;-1.214;2023-11-21T06:45:50;101896.75;;;26.98;100.00
47983;BME280;33751;50.816;-1.214;2023-11-21T06:48:17;101905.08;;;27.34;100.00
47983;BME280;33751;50.816;-1.214;2023-11-21T06:50:43;101912.56;;;27.17;100.00
47983;BME280;33751;50.816;-1.214;2023-11-21T06:53:10;101917.79;;;27.30;100.00
47983;BME280;33751;50.816;-1.214;2023-11-21T06:55:36;101923.16;;;27.43;100.00
47983;BME280;33751;50.816;-1.214;2023-11-21T06:58:03;101925.56;;;27.53;100.00
47983;BME280;33751;50.816;-1.214;2023-11-21T07:00:29;101924.14;;;27.45;100.00
47983;BME280;33751;50.816;-1.214;2023-11-21T07:02:56;101934.69;;;27.75;100.00
47983;BME280;33751;50.816;-1.214;2023-11-21T07:05:22;101938.34;;;27.84;100.00
47983;BME280;33751;50.816;-1.214;2023-11-21T07:07:49;101944.87;;;27.93;100.00
47983;BME280;33751;50.816;-1.214;2023-11-21T07:10:16;101947.77;;;27.73;100.00
47983;BME280;33751;50.816;-1.214;2023-11-21T07:12:43;101952.01;;;28.00;100.00
47983;BME280;33751;50.816;-1.214;2023-11-21T07:15:10;101958.57;;;28.00;100.00
47983;BME280;33751;50.816;-1.214;2023-11-21T07:17:37;101963.06;;;28.08;100.00
47983;BME280;33751;50.816;-1.214;2023-11-21T07:20:05;101966.10;;;28.10;100.00
47983;BME280;33751;50.816;-1.214;2023-11-21T07:22:32;101969.08;;;28.17;100.00
47983;BME280;33751;50.816;-1.214;2023-11-21T07:24:59;101972.52;;;28.21;100.00
47983;BME280;33751;50.816;-1.214;2023-11-21T07:27:25;101976.83;;;28.25;100.00
47983;BME280;33751;50.816;-1.214;2023-11-21T07:29:52;101987.37;;;28.02;100.00
47983;BME280;33751;50.816;-1.214;2023-11-21T07:32:18;101991.20;;;28.30;100.00
47983;BME280;33751;50.816;-1.214;2023-11-21T07:34:45;102000.51;;;28.28;100.00
47983;BME280;33751;50.816;-1.214;2023-11-21T07:37:11;102009.83;;;28.10;100.00
47983;BME280;33751;50.816;-1.214;2023-11-21T07:39:39;102013.83;;;27.80;100.00
47983;BME280;33751;50.816;-1.214;2023-11-21T07:42:05;102018.75;;;27.87;100.00
47983;BME280;33751;50.816;-1.214;2023-11-21T07:44:31;102024.67;;;28.32;100.00
47983;BME280;33751;50.816;-1.214;2023-11-21T07:46:58;102021.45;;;28.30;100.00
47983;BME280;33751;50.816;-1.214;2023-11-21T07:49:24;102028.76;;;28.36;100.00
47983;BME280;33751;50.816;-1.214;2023-11-21T07:51:51;102028.61;;;28.04;100.00
47983;BME280;33751;50.816;-1.214;2023-11-21T07:54:17;102038.66;;;27.88;100.00
47983;BME280;33751;50.816;-1.214;2023-11-21T07:56:44;102037.68;;;28.04;100.00
47983;BME280;33751;50.816;-1.214;2023-11-21T07:59:10;102043.44;;;27.87;100.00
47983;BME280;33751;50.816;-1.214;2023-11-21T08:01:38;102043.60;;;28.34;100.00
47983;BME280;33751;50.816;-1.214;2023-11-21T08:04:05;102047.29;;;28.14;100.00
47983;BME280;33751;50.816;-1.214;2023-11-21T08:06:32;102049.05;;;28.11;100.00
47983;BME280;33751;50.816;-1.214;2023-11-21T08:08:59;102054.68;;;27.95;100.00
47983;BME280;33751;50.816;-1.214;2023-11-21T08:11:26;102060.81;;;27.87;100.00
47983;BME280;33751;50.816;-1.214;2023-11-21T08:13:52;102072.97;;;27.86;100.00
47983;BME280;33751;50.816;-1.214;2023-11-21T08:16:19;102082.82;;;28.29;100.00
47983;BME280;33751;50.816;-1.214;2023-11-21T08:18:45;102084.48;;;27.98;100.00
47983;BME280;33751;50.816;-1.214;2023-11-21T08:21:12;102079.68;;;28.37;100.00
47983;BME280;33751;50.816;-1.214;2023-11-21T08:23:39;102086.30;;;28.46;100.00
47983;BME280;33751;50.816;-1.214;2023-11-21T08:26:06;102097.61;;;28.34;100.00
47983;BME280;33751;50.816;-1.214;2023-11-21T08:28:33;102103.40;;;28.15;100.00
47983;BME280;33751;50.816;-1.214;2023-11-21T08:31:00;102105.38;;;28.32;100.00
47983;BME280;33751;50.816;-1.214;2023-11-21T08:33:27;102107.30;;;28.27;100.00
47983;BME280;33751;50.816;-1.214;2023-11-21T08:35:54;102109.33;;;28.75;100.00
47983;BME280;33751;50.816;-1.214;2023-11-21T08:38:20;102110.01;;;28.39;100.00
47983;BME280;33751;50.816;-1.214;2023-11-21T08:40:47;102112.58;;;28.50;100.00
47983;BME280;33751;50.816;-1.214;2023-11-21T08:43:13;102113.68;;;28.76;100.00
47983;BME280;33751;50.816;-1.214;2023-11-21T08:45:39;102122.99;;;28.67;100.00
47983;BME280;33751;50.816;-1.214;2023-11-21T08:48:06;102124.31;;;28.42;100.00
47983;BME280;33751;50.816;-1.214;2023-11-21T08:50:33;102119.66;;;28.79;100.00
47983;BME280;33751;50.816;-1.214;2023-11-21T08:53:00;102119.68;;;28.77;100.00
47983;BME280;33751;50.816;-1.214;2023-11-21T08:55:27;102120.61;;;28.85;100.00
47983;BME280;33751;50.816;-1.214;2023-11-21T08:57:53;102114.67;;;28.84;100.00
47983;BME280;33751;50.816;-1.214;2023-11-21T09:00:20;102117.25;;;29.04;100.00
47983;BME280;33751;50.816;-1.214;2023-11-21T09:02:46;102117.56;;;28.53;100.00
47983;BME280;33751;50.816;-1.214;2023-11-21T09:05:14;102117.30;;;28.90;100.00
47983;BME280;33751;50.816;-1.214;2023-11-21T09:07:41;102118.88;;;28.70;100.00
47983;BME280;33751;50.816;-1.214;2023-11-21T09:10:09;102122.27;;;29.13;100.00
47983;BME280;33751;50.816;-1.214;2023-11-21T09:12:36;102123.04;;;29.15;100.00
47983;BME280;33751;50.816;-1.214;2023-11-21T09:15:05;102125.69;;;28.77;100.00
47983;BME280;33751;50.816;-1.214;2023-11-21T09:17:32;102131.27;;;28.72;100.00
47983;BME280;33751;50.816;-1.214;2023-11-21T09:20:00;102129.18;;;28.53;100.00
47983;BME280;33751;50.816;-1.214;2023-11-21T09:22:27;102130.58;;;28.78;100.00
47983;BME280;33751;50.816;-1.214;2023-11-21T09:24:53;102130.35;;;28.74;100.00
47983;BME280;33751;50.816;-1.214;2023-11-21T09:27:20;102131.05;;;28.73;100.00
47983;BME280;33751;50.816;-1.214;2023-11-21T09:29:46;102137.94;;;28.76;100.00
47983;BME280;33751;50.816;-1.214;2023-11-21T09:32:13;102142.49;;;28.75;100.00
47983;BME280;33751;50.816;-1.214;2023-11-21T09:34:40;102143.25;;;28.74;100.00
47983;BME280;33751;50.816;-1.214;2023-11-21T09:37:06;102152.87;;;28.75;100.00
47983;BME280;33751;50.816;-1.214;2023-11-21T09:39:34;102149.25;;;28.68;100.00
47983;BME280;33751;50.816;-1.214;2023-11-21T09:42:06;102159.08;;;28.43;100.00
47983;BME280;33751;50.816;-1.214;2023-11-21T09:44:36;102159.28;;;28.58;100.00
47983;BME280;33751;50.816;-1.214;2023-11-21T09:47:07;102161.03;;;28.25;100.00
47983;BME280;33751;50.816;-1.214;2023-11-21T09:49:37;102167.47;;;28.52;100.00
47983;BME280;33751;50.816;-1.214;2023-11-21T09:52:09;102167.86;;;28.50;100.00
47983;BME280;33751;50.816;-1.214;2023-11-21T09:54:40;102176.79;;;28.46;100.00
47983;BME280;33751;50.816;-1.214;2023-11-21T09:57:06;102176.59;;;28.44;100.00
47983;BME280;33751;50.816;-1.214;2023-11-21T09:59:33;102179.48;;;28.62;100.00
47983;BME280;33751;50.816;-1.214;2023-11-21T10:02:00;102180.31;;;28.43;100.00
47983;BME280;33751;50.816;-1.214;2023-11-21T10:04:27;102187.29;;;28.35;100.00
47983;BME280;33751;50.816;-1.214;2023-11-21T10:06:55;102192.57;;;28.55;100.00
47983;BME280;33751;50.816;-1.214;2023-11-21T10:09:24;102198.53;;;28.49;100.00
47983;BME280;33751;50.816;-1.214;2023-11-21T10:11:52;102208.44;;;28.30;100.00
47983;BME280;33751;50.816;-1.214;2023-11-21T10:14:21;102218.41;;;28.49;100.00
47983;BME280;33751;50.816;-1.214;2023-11-21T10:16:52;102219.57;;;28.50;100.00
47983;BME280;33751;50.816;-1.214;2023-11-21T10:19:20;102217.28;;;28.25;100.00
47983;BME280;33751;50.816;-1.214;2023-11-21T10:21:47;102216.06;;;28.35;100.00
47983;BME280;33751;50.816;-1.214;2023-11-21T10:24:14;102228.03;;;28.52;100.00
47983;BME280;33751;50.816;-1.214;2023-11-21T10:26:40;102220.72;;;28.24;100.00
47983;BME280;33751;50.816;-1.214;2023-11-21T10:29:07;102229.31;;;28.48;100.00
47983;BME280;33751;50.816;-1.214;2023-11-21T10:31:34;102223.61;;;28.70;100.00
47983;BME280;33751;50.816;-1.214;2023-11-21T10:34:17;102222.60;;;28.39;100.00
47983;BME280;33751;50.816;-1.214;2023-11-21T10:36:44;102219.46;;;28.20;100.00
47983;BME280;33751;50.816;-1.214;2023-11-21T10:39:14;102218.24;;;28.40;100.00
47983;BME280;33751;50.816;-1.214;2023-11-21T10:41:43;102221.84;;;28.08;100.00
47983;BME280;33751;50.816;-1.214;2023-11-21T10:44:09;102225.33;;;28.46;100.00
47983;BME280;33751;50.816;-1.214;2023-11-21T10:46:36;102223.15;;;28.23;100.00
47983;BME280;33751;50.816;-1.214;2023-11-21T10:49:02;102229.89;;;28.46;100.00
47983;BME280;33751;50.816;-1.214;2023-11-21T10:51:30;102230.70;;;28.48;100.00
47983;BME280;33751;50.816;-1.214;2023-11-21T10:53:56;102232.03;;;28.37;100.00
47983;BME280;33751;50.816;-1.214;2023-11-21T10:56:23;102240.06;;;28.38;100.00
47983;BME280;33751;50.816;-1.214;2023-11-21T10:58:50;102241.03;;;28.07;100.00
47983;BME280;33751;50.816;-1.214;2023-11-21T11:01:18;102244.86;;;28.10;100.00
47983;BME280;33751;50.816;-1.214;2023-11-21T11:03:46;102250.55;;;28.34;100.00
47983;BME280;33751;50.816;-1.214;2023-11-21T11:06:13;102245.61;;;28.10;100.00
47983;BME280;33751;50.816;-1.214;2023-11-21T11:08:40;102244.43;;;28.28;100.00
47983;BME280;33751;50.816;-1.214;2023-11-21T11:11:09;102239.92;;;28.30;100.00
47983;BME280;33751;50.816;-1.214;2023-11-21T11:13:37;102243.30;;;28.09;100.00
47983;BME280;33751;50.816;-1.214;2023-11-21T11:16:05;102247.90;;;28.27;100.00
47983;BME280;33751;50.816;-1.214;2023-11-21T11:18:33;102240.90;;;28.06;100.00
47983;BME280;33751;50.816;-1.214;2023-11-21T11:21:05;102245.49;;;27.84;100.00
47983;BME280;33751;50.816;-1.214;2023-11-21T11:23:45;102243.23;;;27.85;100.00
47983;BME280;33751;50.816;-1.214;2023-11-21T11:26:31;102241.21;;;28.25;100.00
47983;BME280;33751;50.816;-1.214;2023-11-21T11:29:10;102236.95;;;28.30;100.00
47983;BME280;33751;50.816;-1.214;2023-11-21T11:31:52;102234.91;;;28.12;100.00
47983;BME280;33751;50.816;-1.214;2023-11-21T11:34:26;102235.62;;;28.32;100.00
47983;BME280;33751;50.816;-1.214;2023-11-21T11:37:00;102237.32;;;28.03;100.00
47983;BME280;33751;50.816;-1.214;2023-11-21T11:39:29;102230.86;;;28.28;100.00
47983;BME280;33751;50.816;-1.214;2023-11-21T11:41:57;102231.12;;;27.84;100.00
47983;BME280;33751;50.816;-1.214;2023-11-21T11:44:56;102237.90;;;28.09;100.00
47983;BME280;33751;50.816;-1.214;2023-11-21T11:47:25;102235.79;;;28.06;100.00
47983;BME280;33751;50.816;-1.214;2023-11-21T11:49:57;102239.62;;;28.04;100.00
47983;BME280;33751;50.816;-1.214;2023-11-21T11:52:34;102246.14;;;28.22;100.00
47983;BME280;33751;50.816;-1.214;2023-11-21T11:55:02;102247.36;;;27.92;100.00
47983;BME280;33751;50.816;-1.214;2023-11-21T11:57:30;102249.71;;;28.04;100.00
47983;BME280;33751;50.816;-1.214;2023-11-21T12:00:15;102248.87;;;27.57;100.00
47983;BME280;33751;50.816;-1.214;2023-11-21T12:02:42;102248.96;;;28.11;100.00
47983;BME280;33751;50.816;-1.214;2023-11-21T12:05:11;102251.07;;;28.06;100.00
47983;BME280;33751;50.816;-1.214;2023-11-21T12:07:48;102254.92;;;27.99;100.00
47983;BME280;33751;50.816;-1.214;2023-11-21T12:10:16;102260.65;;;28.02;100.00
47983;BME280;33751;50.816;-1.214;2023-11-21T12:12:45;102271.03;;;27.77;100.00
47983;BME280;33751;50.816;-1.214;2023-11-21T12:15:12;102266.80;;;27.63;100.00
47983;BME280;33751;50.816;-1.214;2023-11-21T12:17:42;102268.32;;;28.07;100.00
47983;BME280;33751;50.816;-1.214;2023-11-21T12:20:10;102274.11;;;28.11;100.00
47983;BME280;33751;50.816;-1.214;2023-11-21T12:22:37;102277.77;;;28.13;100.00
47983;BME280;33751;50.816;-1.214;2023-11-21T12:25:04;102282.55;;;27.36;100.00
47983;BME280;33751;50.816;-1.214;2023-11-21T12:27:31;102288.99;;;28.01;100.00
47983;BME280;33751;50.816;-1.214;2023-11-21T12:29:57;102292.90;;;27.89;100.00
47983;BME280;33751;50.816;-1.214;2023-11-21T12:32:24;102300.38;;;28.02;100.00